Nearby METAR Reports

 

KMQS - Coatesville, Pennsylvania, USA
Distance from station: ENE 6mi, 10km
Updated: Wed, 19-Jun-2019 12:15am EDT
Mostly cloudy
Mostly cloudy
 Wind from calm
Wind: Calm
Temperature: 72°F , 22°C
Dew Point: 68°F , 20°C
Humidity: 88%
Barometer: 29.92 inHg , 1013.2 hPa
Clouds: Mostly cloudy
Visibility: 10 miles , 16 km
Cloud details: Mostly cloudy 6000 ft
2019/06/19 04:15 KMQS 190415Z AUTO 00000KT 10SM BKN060 22/20 A2992 RMK AO2
KLNS - Lancaster, Pennsylvania, USA
Distance from station: NW 21mi, 33km
Updated: Tue, 18-Jun-2019 11:53pm EDT
Overcast
Overcast
 Wind from calm
Wind: Calm
Temperature: 73°F , 23°C
Dew Point: 70°F , 21°C
Humidity: 89%
Barometer: 29.89 inHg , 1012.2 hPa
Clouds: Overcast
Visibility: 10 miles , 16 km
Cloud details: Overcast 8000 ft
2019/06/19 03:53 KLNS 190353Z AUTO 00000KT 10SM OVC080 23/21 A2989 RMK AO2 SLP119 T02280211
 
KILG - Wilmington, Delaware, USA
Distance from station: SE 28mi, 45km
Updated: Tue, 18-Jun-2019 11:51pm EDT
Mostly cloudy
Mostly cloudy
 Wind from SW
Wind: SW 7 mph , 11 km/h
Temperature: 75°F , 24°C
Dew Point: 70°F , 21°C
Humidity: 83%
Barometer: 29.90 inHg , 1012.5 hPa
Clouds: Mostly cloudy
Visibility: 10 miles , 16 km
Cloud details: Mostly cloudy 6500 ft
2019/06/19 03:51 KILG 190351Z AUTO 22006KT 10SM BKN065 24/21 A2990 RMK AO2 RAB29E47 SLP123 T02390206 PNO $
KRDG - Reading, Pennsylvania, USA
Distance from station: N 29mi, 47km
Updated: Tue, 18-Jun-2019 11:54pm EDT
Overcast
Overcast
 Wind from N
Wind: N 5 mph , 7 km/h
Temperature: 70°F , 21°C
Dew Point: 70°F , 21°C
Humidity: 100%
Barometer: 29.88 inHg , 1011.9 hPa
Clouds: Overcast
Visibility: 10 miles , 16 km
Cloud details: Few Clouds 8500 ft
Overcast 11000 ft
2019/06/19 03:54 KRDG 190354Z AUTO 35004KT 10SM FEW085 OVC110 21/21 A2988 RMK AO2 SLP121 T02110206
 
KPTW - Pottstown, Pennsylvania, USA
Distance from station: NE 30mi, 48km
Updated: Tue, 18-Jun-2019 11:54pm EDT
Mist
Mist
 Wind from calm
Wind: Calm
Temperature: 68°F , 20°C
Dew Point: 68°F , 20°C
Humidity: 100%
Barometer: 29.92 inHg , 1013.2 hPa
Summary: Mist
Visibility: 6 miles , 10 km
2019/06/19 03:54 KPTW 190354Z AUTO 00000KT 6SM BR 20/20 A2992 RMK AO2 SLP125 T02000200 $